createdAt,value
2018-11-06T00:00:28.802Z,11.60
2018-11-06T00:03:02.656Z,11.70
2018-11-06T00:05:31.612Z,11.60
2018-11-06T00:08:00.888Z,11.60
2018-11-06T00:10:29.965Z,11.60
2018-11-06T00:13:01.131Z,11.70
2018-11-06T00:15:34.506Z,11.60
2018-11-06T00:18:03.626Z,11.60
2018-11-06T00:20:32.817Z,11.60
2018-11-06T00:23:01.842Z,11.60
2018-11-06T00:25:34.499Z,11.60
2018-11-06T00:28:03.421Z,11.60
2018-11-06T00:30:32.708Z,11.60
2018-11-06T00:33:01.863Z,11.60
2018-11-06T00:35:30.657Z,11.60
2018-11-06T00:37:59.892Z,11.60
2018-11-06T00:40:28.845Z,11.60
2018-11-06T00:42:57.984Z,11.60
2018-11-06T00:45:27.193Z,11.60
2018-11-06T00:47:56.179Z,11.60
2018-11-06T00:50:25.073Z,11.60
2018-11-06T00:52:54.040Z,11.60
2018-11-06T00:55:23.020Z,11.60
2018-11-06T00:57:51.810Z,11.60
2018-11-06T01:00:20.628Z,11.60
2018-11-06T01:02:49.917Z,11.60
2018-11-06T01:05:18.990Z,11.60
2018-11-06T01:07:48.659Z,11.60
2018-11-06T01:10:17.417Z,11.60
2018-11-06T01:12:46.266Z,11.60
2018-11-06T01:15:17.641Z,11.60
2018-11-06T01:17:46.922Z,11.60
2018-11-06T01:20:18.758Z,11.50
2018-11-06T01:22:47.610Z,11.50
2018-11-06T01:25:16.867Z,11.50
2018-11-06T01:27:45.746Z,11.50
2018-11-06T01:30:18.565Z,11.50
2018-11-06T01:32:47.746Z,11.50
2018-11-06T01:35:17.061Z,11.50
2018-11-06T01:37:46.334Z,11.50
2018-11-06T01:40:16.212Z,11.50
2018-11-06T01:42:45.425Z,11.50
2018-11-06T01:45:15.326Z,11.50
2018-11-06T01:47:44.479Z,11.50
2018-11-06T01:50:14.670Z,11.50
2018-11-06T01:52:44.392Z,11.50
2018-11-06T01:55:13.361Z,11.50
2018-11-06T01:57:42.375Z,11.50
2018-11-06T02:00:13.776Z,11.50
2018-11-06T02:02:42.973Z,11.50
2018-11-06T02:05:13.188Z,11.50
2018-11-06T02:07:44.471Z,11.50
2018-11-06T02:10:14.146Z,11.50
2018-11-06T02:12:47.447Z,11.50
2018-11-06T02:15:16.381Z,11.50
2018-11-06T02:17:45.991Z,11.40
2018-11-06T02:20:15.536Z,11.40
2018-11-06T02:22:45.313Z,11.40
2018-11-06T02:25:14.569Z,11.40
2018-11-06T02:27:43.541Z,11.40
2018-11-06T02:30:14.426Z,11.40
2018-11-06T02:32:44.225Z,11.40
2018-11-06T02:35:13.375Z,11.40
2018-11-06T02:37:42.532Z,11.30
2018-11-06T02:40:13.998Z,11.30
2018-11-06T02:42:43.202Z,11.30
2018-11-06T02:45:12.923Z,11.30
2018-11-06T02:47:42.590Z,11.30
2018-11-06T02:50:12.389Z,11.30
2018-11-06T02:52:41.982Z,11.30
2018-11-06T02:55:11.440Z,11.30
2018-11-06T02:57:40.453Z,11.30
2018-11-06T03:00:13.492Z,11.30
2018-11-06T03:02:42.641Z,11.30
2018-11-06T03:05:11.945Z,11.30
2018-11-06T03:07:41.511Z,11.30
2018-11-06T03:10:11.516Z,11.30
2018-11-06T03:12:43.370Z,11.30
2018-11-06T03:15:13.411Z,11.30
2018-11-06T03:17:42.226Z,11.30
2018-11-06T03:20:11.963Z,11.30
2018-11-06T03:22:41.325Z,11.30
2018-11-06T03:25:10.518Z,11.30
2018-11-06T03:27:39.324Z,11.30
2018-11-06T03:30:11.512Z,11.30
2018-11-06T03:32:40.593Z,11.20
2018-11-06T03:35:10.994Z,11.20
2018-11-06T03:37:40.187Z,11.20
2018-11-06T03:40:09.823Z,11.20
2018-11-06T03:42:39.832Z,11.20
2018-11-06T03:45:09.244Z,11.20
2018-11-06T03:47:38.277Z,11.20
2018-11-06T03:50:08.211Z,11.20
2018-11-06T03:52:37.210Z,11.20
2018-11-06T03:55:06.559Z,11.20
2018-11-06T03:57:35.735Z,11.10
2018-11-06T04:00:05.173Z,11.10
2018-11-06T04:02:34.504Z,11.10
2018-11-06T04:05:03.352Z,11.10
2018-11-06T04:07:32.386Z,11.10
2018-11-06T04:10:02.535Z,11.10
2018-11-06T04:12:31.498Z,11.10
2018-11-06T04:15:00.775Z,11.10
2018-11-06T04:17:29.809Z,11.10
2018-11-06T04:19:59.928Z,11.00
2018-11-06T04:22:28.860Z,11.00
2018-11-06T04:24:57.821Z,11.00
2018-11-06T04:27:26.770Z,11.00
2018-11-06T04:29:55.863Z,11.00
2018-11-06T04:34:48.888Z,11.00
2018-11-06T04:37:17.636Z,11.00
2018-11-06T04:39:46.416Z,10.90
2018-11-06T04:42:15.312Z,10.90
2018-11-06T04:44:44.362Z,10.90
2018-11-06T04:47:13.105Z,10.90
2018-11-06T04:49:41.759Z,10.90
2018-11-06T04:52:10.705Z,10.90
2018-11-06T04:54:39.348Z,10.90
2018-11-06T04:57:08.226Z,10.90
2018-11-06T04:59:36.956Z,10.90
2018-11-06T05:02:06.461Z,10.90
2018-11-06T05:04:35.265Z,10.80
2018-11-06T05:07:04.163Z,10.80
2018-11-06T05:09:32.707Z,10.80
2018-11-06T05:21:11.885Z,10.70
2018-11-06T05:23:42.717Z,10.70
2018-11-06T05:26:11.455Z,10.70
2018-11-06T05:28:40.181Z,10.80
2018-11-06T05:31:08.840Z,10.90
2018-11-06T05:33:38.900Z,10.90
2018-11-06T05:36:07.760Z,11.00
2018-11-06T05:38:36.462Z,11.00
2018-11-06T05:41:07.308Z,11.00
2018-11-06T05:43:36.966Z,10.90
2018-11-06T05:46:05.873Z,10.90
2018-11-06T05:48:34.713Z,10.80
2018-11-06T05:51:03.458Z,10.80
2018-11-06T05:53:32.434Z,10.80
2018-11-06T05:56:01.398Z,10.70
2018-11-06T05:58:30.145Z,10.70
2018-11-06T06:00:58.958Z,10.70
2018-11-06T06:03:29.204Z,10.70
2018-11-06T06:05:58.022Z,10.70
2018-11-06T06:08:29.357Z,10.70
2018-11-06T06:10:59.667Z,10.80
2018-11-06T06:13:28.665Z,10.90
2018-11-06T06:15:57.589Z,11.00
2018-11-06T06:18:26.639Z,11.00
2018-11-06T06:20:55.752Z,11.00
2018-11-06T06:23:24.756Z,10.90
2018-11-06T06:25:54.694Z,10.80
2018-11-06T06:28:23.839Z,10.80
2018-11-06T06:30:53.020Z,10.70
2018-11-06T06:33:21.830Z,10.70
2018-11-06T06:35:52.134Z,10.70
2018-11-06T06:38:20.724Z,10.70
2018-11-06T06:40:49.362Z,10.60
2018-11-06T06:43:18.117Z,10.60
2018-11-06T06:48:37.486Z,10.60
2018-11-06T06:51:06.523Z,10.60
2018-11-06T06:53:39.831Z,10.50
2018-11-06T06:56:08.629Z,10.50
2018-11-06T06:58:37.334Z,10.50
2018-11-06T07:01:06.440Z,10.50
2018-11-06T07:03:34.995Z,10.50
2018-11-06T07:06:03.624Z,10.50
2018-11-06T07:08:32.297Z,10.40
2018-11-06T07:11:00.991Z,10.40
2018-11-06T07:13:29.754Z,10.40
2018-11-06T07:15:58.460Z,10.40
2018-11-06T07:18:26.996Z,10.40
2018-11-06T07:20:55.989Z,10.40
2018-11-06T07:23:24.602Z,10.40
2018-11-06T07:25:53.390Z,10.40
2018-11-06T07:28:22.156Z,10.40
2018-11-06T07:30:50.916Z,10.40
2018-11-06T07:33:19.859Z,10.40
2018-11-06T07:35:48.772Z,10.40
2018-11-06T07:38:17.490Z,10.40
2018-11-06T07:40:46.284Z,10.40
2018-11-06T07:43:15.190Z,10.40
2018-11-06T07:45:43.898Z,10.40
2018-11-06T07:48:12.623Z,10.40
2018-11-06T07:50:41.328Z,10.40
2018-11-06T07:53:10.154Z,10.50
2018-11-06T07:55:39.044Z,10.50
2018-11-06T07:58:08.003Z,10.50
2018-11-06T08:00:37.073Z,10.50
2018-11-06T08:03:06.121Z,10.50
2018-11-06T08:05:34.777Z,10.50
2018-11-06T08:08:03.506Z,10.50
2018-11-06T08:10:32.359Z,10.50
2018-11-06T08:13:01.365Z,10.50
2018-11-06T08:15:30.150Z,10.60
2018-11-06T08:18:01.010Z,10.60
2018-11-06T08:20:30.055Z,10.60
2018-11-06T08:22:58.648Z,10.60
2018-11-06T08:25:27.524Z,10.70
2018-11-06T08:27:56.359Z,10.70
2018-11-06T08:30:25.053Z,10.70
2018-11-06T08:32:53.834Z,10.70
2018-11-06T08:35:22.718Z,10.80
2018-11-06T08:37:51.301Z,10.70
2018-11-06T08:40:19.982Z,10.80
2018-11-06T08:42:48.765Z,10.80
2018-11-06T08:45:17.931Z,10.80
2018-11-06T08:47:46.998Z,10.80
2018-11-06T08:50:18.398Z,10.80
2018-11-06T08:52:47.318Z,10.80
2018-11-06T08:55:16.955Z,10.90
2018-11-06T08:57:46.360Z,10.90
2018-11-06T09:00:16.863Z,10.90
2018-11-06T09:02:46.938Z,11.00
2018-11-06T09:05:16.390Z,11.00
2018-11-06T09:07:45.359Z,11.00
2018-11-06T09:10:14.901Z,11.10
2018-11-06T09:12:43.949Z,11.20
2018-11-06T09:15:14.433Z,11.20
2018-11-06T09:17:43.468Z,11.30
2018-11-06T09:20:13.436Z,11.40
2018-11-06T09:22:42.520Z,11.40
2018-11-06T09:25:12.826Z,11.50
2018-11-06T09:27:42.514Z,11.50
2018-11-06T09:30:13.923Z,11.60
2018-11-06T09:32:42.784Z,11.80
2018-11-06T09:35:12.711Z,11.90
2018-11-06T09:37:42.366Z,12.00
2018-11-06T09:40:14.067Z,12.10
2018-11-06T09:42:43.039Z,12.20
2018-11-06T09:45:16.377Z,12.20
2018-11-06T09:47:45.548Z,12.30
2018-11-06T09:50:15.830Z,12.50
2018-11-06T09:52:45.477Z,12.60
2018-11-06T09:55:15.020Z,12.80
2018-11-06T09:57:46.524Z,13.00
2018-11-06T10:00:17.073Z,13.10
2018-11-06T10:02:46.131Z,13.20
2018-11-06T10:05:15.340Z,13.20
2018-11-06T10:07:44.660Z,13.30
2018-11-06T10:10:15.390Z,13.30
2018-11-06T10:12:44.624Z,13.20
2018-11-06T10:15:15.822Z,13.20
2018-11-06T10:17:46.091Z,13.30
2018-11-06T10:20:16.167Z,13.40
2018-11-06T10:22:45.113Z,13.40
2018-11-06T10:25:16.196Z,13.50
2018-11-06T10:27:45.224Z,13.50
2018-11-06T10:30:18.149Z,13.60
2018-11-06T10:32:47.053Z,13.70
2018-11-06T10:35:16.045Z,13.80
2018-11-06T10:37:45.133Z,13.80
2018-11-06T10:40:17.578Z,13.80
2018-11-06T10:42:47.764Z,13.90
2018-11-06T10:45:17.065Z,14.00
2018-11-06T10:47:45.908Z,14.00
2018-11-06T10:50:15.555Z,14.10
2018-11-06T10:52:44.651Z,14.10
2018-11-06T10:55:13.519Z,14.20
2018-11-06T10:57:42.674Z,14.30
2018-11-06T11:00:17.729Z,14.40
2018-11-06T11:02:51.675Z,14.50
2018-11-06T11:05:21.604Z,14.70
2018-11-06T11:07:50.522Z,14.80
2018-11-06T11:10:19.411Z,14.80
2018-11-06T11:12:48.386Z,15.00
2018-11-06T11:15:17.610Z,15.20
2018-11-06T11:17:46.521Z,15.40
2018-11-06T11:20:15.650Z,15.40
2018-11-06T11:22:44.457Z,15.50
2018-11-06T11:25:14.578Z,15.60
2018-11-06T11:27:43.841Z,15.80
2018-11-06T11:30:14.718Z,16.00
2018-11-06T11:32:45.069Z,16.10
2018-11-06T11:35:14.629Z,16.10
2018-11-06T11:37:43.913Z,16.20
2018-11-06T11:40:13.791Z,16.30
2018-11-06T11:42:42.732Z,16.30
2018-11-06T11:45:13.886Z,16.50
2018-11-06T11:47:43.007Z,16.60
2018-11-06T11:50:12.926Z,16.70
2018-11-06T11:52:41.964Z,16.80
2018-11-06T11:55:12.093Z,16.80
2018-11-06T11:57:41.307Z,16.90
2018-11-06T12:00:12.647Z,16.90
2018-11-06T12:02:41.674Z,16.90
2018-11-06T12:05:11.440Z,16.80
2018-11-06T12:07:40.625Z,16.80
2018-11-06T12:10:10.923Z,16.80
2018-11-06T12:12:39.793Z,16.80
2018-11-06T12:15:11.002Z,16.70
2018-11-06T12:17:41.357Z,16.60
2018-11-06T12:20:10.193Z,16.50
2018-11-06T12:22:39.443Z,16.50
2018-11-06T12:25:08.555Z,16.60
2018-11-06T12:27:37.652Z,16.60
2018-11-06T12:30:08.128Z,16.60
2018-11-06T12:32:39.361Z,16.70
2018-11-06T12:35:09.062Z,16.80
2018-11-06T12:37:38.222Z,16.80
2018-11-06T12:40:08.086Z,16.80
2018-11-06T12:42:37.132Z,16.80
2018-11-06T12:45:06.851Z,17.00
2018-11-06T12:47:35.711Z,17.00
2018-11-06T12:50:05.113Z,17.10
2018-11-06T12:52:33.910Z,17.20
2018-11-06T12:55:02.589Z,17.30
2018-11-06T12:57:31.218Z,17.30
2018-11-06T13:00:00.168Z,17.30
2018-11-06T13:02:28.871Z,17.30
2018-11-06T13:04:57.621Z,17.40
2018-11-06T13:07:26.613Z,17.40
2018-11-06T13:09:55.565Z,17.50
2018-11-06T13:12:24.327Z,17.50
2018-11-06T13:14:53.048Z,17.50
2018-11-06T13:17:22.068Z,17.40
2018-11-06T13:19:50.923Z,17.40
2018-11-06T13:22:19.581Z,17.40
2018-11-06T13:24:48.507Z,17.40
2018-11-06T13:27:17.387Z,17.50
2018-11-06T13:29:46.076Z,17.50
2018-11-06T13:32:14.915Z,17.50
2018-11-06T13:34:43.851Z,17.40
2018-11-06T13:37:12.749Z,17.40
2018-11-06T13:39:41.514Z,17.40
2018-11-06T13:42:10.371Z,17.30
2018-11-06T13:44:39.262Z,17.30
2018-11-06T13:47:07.783Z,17.30
2018-11-06T13:49:36.606Z,17.30
2018-11-06T13:52:10.598Z,17.30
2018-11-06T13:54:39.275Z,17.20
2018-11-06T13:57:08.390Z,17.20
2018-11-06T13:59:37.251Z,17.10
2018-11-06T14:02:06.368Z,17.10
2018-11-06T14:04:35.254Z,17.10
2018-11-06T14:07:04.053Z,17.10
2018-11-06T14:09:33.056Z,17.10
2018-11-06T14:12:01.611Z,17.10
2018-11-06T14:14:30.350Z,17.10
2018-11-06T14:17:00.305Z,17.10
2018-11-06T14:19:29.047Z,17.10
2018-11-06T14:21:57.667Z,17.00
2018-11-06T14:24:30.091Z,17.00
2018-11-06T14:26:59.116Z,17.00
2018-11-06T14:29:28.227Z,16.90
2018-11-06T14:31:56.823Z,16.90
2018-11-06T14:34:25.871Z,16.90
2018-11-06T14:36:54.684Z,16.90
2018-11-06T14:42:13.991Z,16.80
2018-11-06T14:44:42.811Z,16.70
2018-11-06T14:47:11.884Z,16.70
2018-11-06T14:49:40.532Z,16.70
2018-11-06T14:52:09.493Z,16.70
2018-11-06T14:54:38.514Z,16.60
2018-11-06T14:57:07.155Z,16.50
2018-11-06T14:59:35.825Z,16.50
2018-11-06T15:02:04.932Z,16.50
2018-11-06T15:04:33.630Z,16.40
2018-11-06T15:07:02.235Z,16.30
2018-11-06T15:09:31.608Z,16.20
2018-11-06T15:12:00.256Z,16.20
2018-11-06T15:14:28.994Z,16.10
2018-11-06T15:16:57.863Z,16.00
2018-11-06T15:19:27.207Z,16.00
2018-11-06T15:21:55.824Z,15.90
2018-11-06T15:24:24.646Z,15.90
2018-11-06T15:26:53.465Z,15.70
2018-11-06T15:29:22.523Z,15.80
2018-11-06T15:31:51.267Z,15.70
2018-11-06T15:34:20.223Z,15.70
2018-11-06T15:36:49.606Z,15.60
2018-11-06T15:39:19.426Z,15.50
2018-11-06T15:41:48.329Z,15.50
2018-11-06T15:44:17.104Z,15.40
2018-11-06T15:46:45.797Z,15.40
2018-11-06T15:49:26.601Z,15.20
2018-11-06T15:51:55.919Z,15.20
2018-11-06T15:54:24.966Z,15.20
2018-11-06T15:56:53.705Z,15.10
2018-11-06T15:59:22.422Z,15.10
2018-11-06T16:01:51.547Z,15.00
2018-11-06T16:04:20.504Z,15.00
2018-11-06T16:06:49.623Z,14.90
2018-11-06T16:09:18.695Z,14.90
2018-11-06T16:11:47.905Z,14.80
2018-11-06T16:14:17.140Z,14.70
2018-11-06T16:16:45.997Z,14.70
2018-11-06T16:19:14.959Z,14.60
2018-11-06T16:21:44.122Z,14.50
2018-11-06T16:24:13.313Z,14.50
2018-11-06T16:26:42.243Z,14.40
2018-11-06T16:29:13.344Z,14.40
2018-11-06T16:31:42.668Z,14.40
2018-11-06T16:34:11.570Z,14.40
2018-11-06T16:36:40.333Z,14.30
2018-11-06T16:39:11.707Z,14.30
2018-11-06T16:41:42.928Z,14.20
2018-11-06T16:44:12.033Z,14.20
2018-11-06T16:46:40.908Z,14.10
2018-11-06T16:49:10.005Z,14.10
2018-11-06T16:51:40.032Z,14.00
2018-11-06T16:54:09.013Z,13.90
2018-11-06T16:56:38.108Z,13.90
2018-11-06T16:59:07.313Z,13.80
2018-11-06T17:01:36.278Z,13.80
2018-11-06T17:04:05.262Z,13.70
2018-11-06T17:06:40.239Z,13.70
2018-11-06T17:09:10.144Z,13.60
2018-11-06T17:11:40.393Z,13.60
2018-11-06T17:14:09.412Z,13.60
2018-11-06T17:16:38.488Z,13.50
2018-11-06T17:19:09.054Z,13.50
2018-11-06T17:21:40.336Z,13.50
2018-11-06T17:24:09.619Z,13.30
2018-11-06T17:26:38.496Z,13.30
2018-11-06T17:29:08.577Z,13.30
2018-11-06T17:31:37.693Z,13.20
2018-11-06T17:34:06.784Z,13.10
2018-11-06T17:36:36.156Z,13.10
2018-11-06T17:39:07.360Z,13.10
2018-11-06T17:41:37.117Z,13.10
2018-11-06T17:44:06.410Z,13.00
2018-11-06T17:46:35.635Z,13.00
2018-11-06T17:49:04.745Z,13.00
2018-11-06T17:51:38.705Z,12.90
2018-11-06T17:54:08.005Z,13.00
2018-11-06T17:56:36.939Z,13.00
2018-11-06T17:59:06.409Z,12.90
2018-11-06T18:01:35.563Z,12.90
2018-11-06T18:04:05.522Z,12.90
2018-11-06T18:06:38.481Z,12.90
2018-11-06T18:09:12.010Z,12.90
2018-11-06T18:11:43.092Z,12.90
2018-11-06T18:14:12.068Z,12.90
2018-11-06T18:16:44.509Z,12.90
2018-11-06T18:22:47.601Z,12.90
2018-11-06T18:25:16.935Z,12.80
2018-11-06T18:27:46.901Z,12.80
2018-11-06T18:30:17.400Z,12.80
2018-11-06T18:32:46.406Z,12.70
2018-11-06T18:35:18.754Z,12.60
2018-11-06T18:37:47.633Z,12.60
2018-11-06T18:40:19.000Z,12.60
2018-11-06T18:42:48.782Z,12.60
2018-11-06T18:45:17.903Z,12.60
2018-11-06T18:47:47.118Z,12.60
2018-11-06T18:50:17.122Z,12.60
2018-11-06T18:52:47.395Z,12.60
2018-11-06T18:55:18.601Z,12.50
2018-11-06T18:57:47.825Z,12.50
2018-11-06T19:00:23.393Z,12.50
2018-11-06T19:02:52.760Z,12.50
2018-11-06T19:05:22.421Z,12.40
2018-11-06T19:07:51.082Z,12.40
2018-11-06T19:10:20.087Z,12.30
2018-11-06T19:12:48.845Z,12.30
2018-11-06T19:15:18.990Z,12.30
2018-11-06T19:17:48.242Z,12.30
2018-11-06T19:20:21.496Z,12.30
2018-11-06T19:22:51.683Z,12.20
2018-11-06T19:25:21.044Z,12.20
2018-11-06T19:27:50.661Z,12.20
2018-11-06T19:30:20.988Z,12.10
2018-11-06T19:32:50.173Z,12.10
2018-11-06T19:35:19.679Z,12.10
2018-11-06T19:37:48.556Z,12.10
2018-11-06T19:40:18.091Z,12.00
2018-11-06T19:42:47.510Z,12.00
2018-11-06T19:45:16.343Z,12.00
2018-11-06T19:47:45.154Z,11.90
2018-11-06T19:50:20.399Z,11.90
2018-11-06T19:52:49.309Z,11.90
2018-11-06T19:55:18.527Z,11.80
2018-11-06T19:57:47.173Z,11.90
2018-11-06T20:00:17.925Z,11.90
2018-11-06T20:02:50.398Z,11.80
2018-11-06T20:05:20.832Z,11.80
2018-11-06T20:07:50.655Z,11.80
2018-11-06T20:10:20.768Z,11.70
2018-11-06T20:12:50.783Z,11.70
2018-11-06T20:15:19.688Z,11.70
2018-11-06T20:17:48.663Z,11.70
2018-11-06T20:20:22.412Z,11.70
2018-11-06T20:22:51.308Z,11.60
2018-11-06T20:25:20.280Z,11.60
2018-11-06T20:27:49.558Z,11.50
2018-11-06T20:30:20.750Z,11.50
2018-11-06T20:32:49.644Z,11.50
2018-11-06T20:35:18.648Z,11.50
2018-11-06T20:37:48.759Z,11.50
2018-11-06T20:40:20.110Z,11.40
2018-11-06T20:42:49.356Z,11.40
2018-11-06T20:45:22.372Z,11.40
2018-11-06T20:47:51.285Z,11.30
2018-11-06T20:50:21.766Z,11.30
2018-11-06T20:52:50.739Z,11.30
2018-11-06T20:55:19.832Z,11.20
2018-11-06T20:57:51.168Z,11.20
2018-11-06T21:00:27.845Z,11.20
2018-11-06T21:02:59.182Z,11.20
2018-11-06T21:05:28.263Z,11.20
2018-11-06T21:07:57.462Z,11.20
2018-11-06T21:10:28.991Z,11.10
2018-11-06T21:12:58.637Z,11.00
2018-11-06T21:15:28.607Z,11.00
2018-11-06T21:17:57.819Z,11.00
2018-11-06T21:20:26.874Z,11.00
2018-11-06T21:22:55.980Z,11.00
2018-11-06T21:25:25.225Z,11.00
2018-11-06T21:27:54.528Z,10.90
2018-11-06T21:30:23.705Z,10.80
2018-11-06T21:32:55.165Z,10.80
2018-11-06T21:35:26.059Z,10.80
2018-11-06T21:37:55.162Z,10.70
2018-11-06T21:40:24.244Z,10.70
2018-11-06T21:42:54.652Z,10.80
2018-11-06T21:45:24.223Z,10.70
2018-11-06T21:47:55.302Z,10.60
2018-11-06T21:50:24.696Z,10.60
2018-11-06T21:52:53.865Z,10.70
2018-11-06T21:55:24.323Z,10.70
2018-11-06T21:57:54.970Z,10.70
2018-11-06T22:00:24.003Z,10.70
2018-11-06T22:02:53.288Z,10.70
2018-11-06T22:05:22.841Z,10.70
2018-11-06T22:07:53.150Z,10.60
2018-11-06T22:10:22.604Z,10.60
2018-11-06T22:12:51.802Z,10.60
2018-11-06T22:15:22.157Z,10.50
2018-11-06T22:17:51.680Z,10.50
2018-11-06T22:20:21.087Z,10.50
2018-11-06T22:22:50.486Z,10.30
2018-11-06T22:25:19.865Z,10.40
2018-11-06T22:27:49.012Z,10.40
2018-11-06T22:30:18.261Z,10.50
2018-11-06T22:32:47.920Z,10.30
2018-11-06T22:35:18.051Z,10.30
2018-11-06T22:37:47.261Z,10.30
2018-11-06T22:40:17.379Z,10.30
2018-11-06T22:42:46.538Z,10.40
2018-11-06T22:45:17.038Z,10.40
2018-11-06T22:47:46.287Z,10.40
2018-11-06T22:50:16.618Z,10.40
2018-11-06T22:52:47.603Z,10.30
2018-11-06T22:55:16.969Z,10.30
2018-11-06T22:57:46.103Z,10.30
2018-11-06T23:00:26.663Z,10.30
2018-11-06T23:02:55.748Z,10.30
2018-11-06T23:05:25.156Z,10.30
2018-11-06T23:07:59.344Z,10.30
2018-11-06T23:10:28.572Z,10.30
2018-11-06T23:12:57.817Z,10.20
2018-11-06T23:15:27.067Z,10.20
2018-11-06T23:17:56.270Z,10.20
2018-11-06T23:20:25.585Z,10.20
2018-11-06T23:22:54.898Z,10.20
2018-11-06T23:25:24.337Z,10.20
2018-11-06T23:27:54.988Z,10.20
2018-11-06T23:30:24.224Z,10.20
2018-11-06T23:32:53.395Z,10.20
2018-11-06T23:35:22.724Z,10.20
2018-11-06T23:37:52.094Z,10.10
2018-11-06T23:40:21.487Z,10.00
2018-11-06T23:42:50.755Z,10.00
2018-11-06T23:45:20.075Z,10.00
2018-11-06T23:47:49.492Z,10.00
2018-11-06T23:50:18.986Z,10.00
2018-11-06T23:52:49.260Z,10.00
2018-11-06T23:55:18.577Z,10.00
2018-11-06T23:57:47.850Z,10.00
